Time;durP1;ratioP1;P1;durP2;ratioP2;P2;SDS_P1;SDS_P2;PMS_P1;PMS_P2;Temp;Humidity;BMP_temperature;BMP_pressure;BME280_temperature;BME280_humidity;BME280_pressure;Samples;Min_cycle;Max_cycle;Signal;HPM_P1;HPM_P2
2022/10/31 00:00:50;;;;;;;12.57;7.23;;;;;;;;;;4999973;28;20382;-45
2022/10/31 00:03:17;;;;;;;16.43;6.67;;;;;;;;;;5001407;28;20465;-45
2022/10/31 00:05:44;;;;;;;16.57;8.00;;;;;;;;;;5004497;28;20901;-47
2022/10/31 00:08:10;;;;;;;14.23;7.00;;;;;;;;;;5004090;28;20756;-44
2022/10/31 00:10:38;;;;;;;15.23;6.83;;;;;;;;;;4998419;28;20411;-44
2022/10/31 00:13:04;;;;;;;9.37;7.27;;;;;;;;;;4996093;28;20442;-44
2022/10/31 00:15:30;;;;;;;11.30;6.77;;;;;;;;;;5003246;28;20393;-44
2022/10/31 00:17:56;;;;;;;12.47;6.50;;;;;;;;;;5002473;28;20505;-44
2022/10/31 00:20:22;;;;;;;11.23;7.50;;;;;;;;;;5002279;28;20744;-44
2022/10/31 00:22:48;;;;;;;10.67;6.90;;;;;;;;;;5001269;28;20981;-44
2022/10/31 00:25:14;;;;;;;16.10;7.10;;;;;;;;;;5004630;28;20441;-44
2022/10/31 00:27:40;;;;;;;15.03;8.20;;;;;;;;;;5001322;28;20415;-43
2022/10/31 00:30:06;;;;;;;12.40;7.63;;;;;;;;;;5006432;28;20386;-44
2022/10/31 00:32:32;;;;;;;16.87;8.20;;;;;;;;;;5004223;28;20892;-44
2022/10/31 00:34:58;;;;;;;15.90;7.07;;;;;;;;;;5003930;28;20394;-44
2022/10/31 00:37:24;;;;;;;14.17;7.63;;;;;;;;;;5005873;28;20411;-43
2022/10/31 00:39:50;;;;;;;10.73;7.57;;;;;;;;;;4998187;28;20408;-43
2022/10/31 00:42:16;;;;;;;14.50;8.87;;;;;;;;;;5005157;28;20415;-43
2022/10/31 00:44:42;;;;;;;10.97;8.57;;;;;;;;;;5013533;28;20818;-44
2022/10/31 00:47:08;;;;;;;17.63;8.47;;;;;;;;;;5005882;28;20448;-44
2022/10/31 00:49:34;;;;;;;15.10;9.10;;;;;;;;;;4998930;28;20464;-43
2022/10/31 00:52:00;;;;;;;24.57;8.90;;;;;;;;;;4998823;28;20412;-44
2022/10/31 00:54:26;;;;;;;16.83;8.80;;;;;;;;;;5003996;28;20841;-44
2022/10/31 00:56:52;;;;;;;12.00;8.70;;;;;;;;;;5001229;28;20418;-45
2022/10/31 00:59:18;;;;;;;11.90;6.63;;;;;;;;;;5004166;28;20448;-45
2022/10/31 01:01:44;;;;;;;11.73;7.90;;;;;;;;;;5002649;28;20674;-44
2022/10/31 01:04:10;;;;;;;12.00;9.23;;;;;;;;;;5006723;28;20477;-44
2022/10/31 01:06:35;;;;;;;12.13;7.80;;;;;;;;;;4997297;28;20872;-45
2022/10/31 01:09:01;;;;;;;16.73;8.50;;;;;;;;;;5002624;28;20395;-44
2022/10/31 01:11:27;;;;;;;14.20;9.17;;;;;;;;;;5005884;28;20447;-44
2022/10/31 01:13:54;;;;;;;12.50;8.37;;;;;;;;;;4998833;28;20443;-44
2022/10/31 01:16:21;;;;;;;13.50;8.17;;;;;;;;;;5004514;28;20494;-44
2022/10/31 01:18:47;;;;;;;16.40;8.17;;;;;;;;;;5004719;28;20398;-44
2022/10/31 01:21:18;;;;;;;17.50;7.73;;;;;;;;;;5004905;28;20586;-44
2022/10/31 01:23:44;;;;;;;14.90;7.70;;;;;;;;;;5000257;28;20946;-44
2022/10/31 01:26:13;;;;;;;13.53;8.37;;;;;;;;;;4996840;28;20413;-45
2022/10/31 01:28:40;;;;;;;21.33;8.67;;;;;;;;;;5000119;28;20535;-44
2022/10/31 01:31:07;;;;;;;14.47;7.53;;;;;;;;;;4998656;28;20496;-44
2022/10/31 01:33:33;;;;;;;19.60;9.00;;;;;;;;;;5004126;28;20435;-44
2022/10/31 01:35:59;;;;;;;15.33;8.30;;;;;;;;;;5001117;28;20417;-44
2022/10/31 01:38:25;;;;;;;13.20;7.80;;;;;;;;;;5003275;28;20395;-44
2022/10/31 01:40:51;;;;;;;19.43;9.20;;;;;;;;;;5008082;28;20748;-44
2022/10/31 01:43:18;;;;;;;14.43;8.03;;;;;;;;;;5003245;28;20494;-44
2022/10/31 01:45:45;;;;;;;15.17;8.23;;;;;;;;;;5004264;28;20462;-44
2022/10/31 01:48:16;;;;;;;14.90;7.97;;;;;;;;;;4999982;28;20393;-43
2022/10/31 01:50:43;;;;;;;18.23;8.40;;;;;;;;;;5001428;28;20828;-44
2022/10/31 01:53:10;;;;;;;10.13;6.73;;;;;;;;;;5001958;28;20429;-43
2022/10/31 01:55:38;;;;;;;19.33;8.90;;;;;;;;;;5005066;28;20880;-43
2022/10/31 01:58:10;;;;;;;11.63;7.87;;;;;;;;;;5003231;28;20434;-43
2022/10/31 02:00:36;;;;;;;15.13;7.83;;;;;;;;;;4997919;28;20491;-43
2022/10/31 02:03:02;;;;;;;9.10;7.40;;;;;;;;;;5003415;28;20562;-43
2022/10/31 02:05:29;;;;;;;14.30;8.13;;;;;;;;;;4997906;28;20438;-43
2022/10/31 02:07:57;;;;;;;11.73;7.73;;;;;;;;;;5005019;28;20410;-44
2022/10/31 02:10:23;;;;;;;11.23;7.50;;;;;;;;;;5003081;28;20893;-44
2022/10/31 02:12:53;;;;;;;21.73;8.70;;;;;;;;;;5002666;28;20408;-44
2022/10/31 02:15:19;;;;;;;19.70;8.63;;;;;;;;;;5003310;28;20396;-43
2022/10/31 02:17:46;;;;;;;19.60;9.30;;;;;;;;;;5002261;28;20411;-43
2022/10/31 02:20:20;;;;;;;22.60;9.17;;;;;;;;;;5002595;28;20513;-44
2022/10/31 02:22:53;;;;;;;17.93;10.67;;;;;;;;;;5000695;28;20474;-44
2022/10/31 02:25:26;;;;;;;14.80;9.80;;;;;;;;;;5007485;28;20820;-43
2022/10/31 02:28:17;;;;;;;22.40;11.20;;;;;;;;;;5004083;28;20374;-43
2022/10/31 02:30:45;;;;;;;17.07;10.43;;;;;;;;;;4994896;28;20759;-44
2022/10/31 02:33:11;;;;;;;30.67;12.03;;;;;;;;;;4997198;28;20470;-43
2022/10/31 02:35:50;;;;;;;20.80;12.20;;;;;;;;;;5004643;28;20410;-43
2022/10/31 02:38:23;;;;;;;19.70;11.40;;;;;;;;;;5002547;28;20498;-43
2022/10/31 02:40:53;;;;;;;16.63;9.57;;;;;;;;;;5002937;28;20432;-44
2022/10/31 02:43:23;;;;;;;19.43;10.40;;;;;;;;;;5002308;28;20462;-44
2022/10/31 02:45:58;;;;;;;19.83;10.23;;;;;;;;;;5001253;28;20419;-43
2022/10/31 02:48:26;;;;;;;13.53;9.47;;;;;;;;;;5001947;28;20472;-44
2022/10/31 02:50:57;;;;;;;14.60;10.10;;;;;;;;;;5000911;28;20416;-43
2022/10/31 02:53:23;;;;;;;22.63;9.87;;;;;;;;;;5006695;28;20452;-43
2022/10/31 02:55:51;;;;;;;20.33;9.63;;;;;;;;;;5003818;28;20411;-43
2022/10/31 02:58:19;;;;;;;21.17;9.53;;;;;;;;;;4999029;28;20425;-43
2022/10/31 03:00:48;;;;;;;16.27;8.37;;;;;;;;;;4999974;28;20889;-43
2022/10/31 03:03:24;;;;;;;15.10;8.87;;;;;;;;;;5001405;28;20502;-43
2022/10/31 03:05:50;;;;;;;19.80;9.60;;;;;;;;;;5004005;28;20406;-43
2022/10/31 03:08:25;;;;;;;16.83;8.97;;;;;;;;;;5002004;28;20960;-44
2022/10/31 03:10:57;;;;;;;12.37;7.87;;;;;;;;;;5002328;28;20417;-43
2022/10/31 03:13:35;;;;;;;17.60;8.73;;;;;;;;;;5003260;28;20516;-43
2022/10/31 03:16:21;;;;;;;17.77;8.20;;;;;;;;;;5001465;28;20417;-43
2022/10/31 03:18:50;;;;;;;16.30;9.70;;;;;;;;;;4990803;28;20449;-43
2022/10/31 03:21:16;;;;;;;13.80;9.13;;;;;;;;;;5006621;28;20947;-43
2022/10/31 03:23:44;;;;;;;15.23;9.13;;;;;;;;;;5001750;28;20500;-43
2022/10/31 03:26:11;;;;;;;22.63;9.73;;;;;;;;;;4998776;28;20435;-43
2022/10/31 03:28:46;;;;;;;13.80;8.60;;;;;;;;;;5001330;28;20490;-43
2022/10/31 03:31:16;;;;;;;19.87;8.90;;;;;;;;;;5001147;28;20415;-43
2022/10/31 03:33:43;;;;;;;18.87;9.03;;;;;;;;;;5003323;28;20431;-43
2022/10/31 03:36:10;;;;;;;21.23;10.80;;;;;;;;;;5002148;28;20517;-44
2022/10/31 03:38:37;;;;;;;18.07;9.63;;;;;;;;;;5004249;28;20520;-43
2022/10/31 03:41:05;;;;;;;15.90;8.80;;;;;;;;;;5003229;28;21057;-44
2022/10/31 03:43:33;;;;;;;12.90;8.40;;;;;;;;;;4988893;28;20473;-43
2022/10/31 03:45:59;;;;;;;13.77;8.10;;;;;;;;;;4996296;28;20457;-44
2022/10/31 03:48:26;;;;;;;16.70;9.47;;;;;;;;;;5003004;28;20434;-43
2022/10/31 03:51:14;;;;;;;21.17;9.80;;;;;;;;;;5002098;28;20484;-43
2022/10/31 03:53:47;;;;;;;16.80;8.87;;;;;;;;;;4993209;28;20431;-43
2022/10/31 03:56:20;;;;;;;15.07;10.20;;;;;;;;;;5001235;28;20500;-43
2022/10/31 03:58:49;;;;;;;22.60;10.50;;;;;;;;;;4994525;28;20443;-43
2022/10/31 04:01:17;;;;;;;18.53;11.20;;;;;;;;;;5004047;28;20416;-44
2022/10/31 04:03:44;;;;;;;14.40;9.77;;;;;;;;;;5003454;28;20564;-44
2022/10/31 04:06:11;;;;;;;17.83;9.07;;;;;;;;;;5008726;28;20915;-43
2022/10/31 04:08:43;;;;;;;16.03;9.17;;;;;;;;;;5003402;28;20918;-43
2022/10/31 04:11:10;;;;;;;20.07;9.60;;;;;;;;;;5000551;28;20425;-43
2022/10/31 04:13:38;;;;;;;15.37;8.40;;;;;;;;;;5002678;28;20440;-44
2022/10/31 04:16:04;;;;;;;17.27;9.07;;;;;;;;;;5003554;28;20512;-44
2022/10/31 04:18:30;;;;;;;13.40;8.63;;;;;;;;;;5007127;28;20402;-43
2022/10/31 04:21:04;;;;;;;19.37;10.07;;;;;;;;;;5004932;28;20408;-43
2022/10/31 04:23:30;;;;;;;17.93;10.73;;;;;;;;;;5006190;28;20985;-43
2022/10/31 04:25:56;;;;;;;26.53;9.63;;;;;;;;;;5004091;28;20417;-45
2022/10/31 04:28:22;;;;;;;16.90;9.60;;;;;;;;;;4998762;28;20425;-44
2022/10/31 04:30:48;;;;;;;17.33;9.43;;;;;;;;;;5006656;28;20413;-44
2022/10/31 04:33:14;;;;;;;19.07;10.63;;;;;;;;;;5003266;28;20831;-43
2022/10/31 04:35:40;;;;;;;18.27;9.93;;;;;;;;;;5005273;28;20412;-44
2022/10/31 04:38:06;;;;;;;17.43;10.20;;;;;;;;;;5003182;28;20419;-43
2022/10/31 04:40:32;;;;;;;18.37;9.50;;;;;;;;;;5004592;28;20418;-43
2022/10/31 04:42:58;;;;;;;16.60;10.07;;;;;;;;;;5002042;28;20510;-43
2022/10/31 04:45:24;;;;;;;15.67;8.90;;;;;;;;;;5003625;28;20443;-44
2022/10/31 04:47:50;;;;;;;15.87;9.13;;;;;;;;;;5006197;28;20930;-43
2022/10/31 04:50:16;;;;;;;15.63;8.67;;;;;;;;;;5001713;28;20792;-43
2022/10/31 04:52:42;;;;;;;12.50;7.90;;;;;;;;;;5002783;28;20781;-43
2022/10/31 04:55:09;;;;;;;14.57;8.53;;;;;;;;;;5003276;28;20419;-43
2022/10/31 04:57:45;;;;;;;18.63;8.73;;;;;;;;;;5002876;28;20894;-43
2022/10/31 05:00:11;;;;;;;18.53;8.57;;;;;;;;;;5003608;28;20427;-43
2022/10/31 05:02:44;;;;;;;17.93;9.67;;;;;;;;;;5006478;28;20942;-44
2022/10/31 05:05:10;;;;;;;14.77;9.50;;;;;;;;;;5006164;28;20471;-44
2022/10/31 05:07:41;;;;;;;17.53;8.63;;;;;;;;;;5000733;28;20456;-44
2022/10/31 05:10:09;;;;;;;14.13;9.33;;;;;;;;;;4998059;28;20468;-43
2022/10/31 05:12:35;;;;;;;18.67;8.80;;;;;;;;;;5008625;28;20410;-43
2022/10/31 05:15:01;;;;;;;11.93;8.23;;;;;;;;;;5003371;28;20913;-43
2022/10/31 05:17:27;;;;;;;20.50;8.80;;;;;;;;;;5005436;28;20413;-43
2022/10/31 05:19:53;;;;;;;11.23;8.47;;;;;;;;;;5002841;28;20472;-43
2022/10/31 05:22:19;;;;;;;17.37;9.83;;;;;;;;;;5004022;28;20408;-43
2022/10/31 05:24:45;;;;;;;21.33;8.90;;;;;;;;;;4999801;28;21022;-44
2022/10/31 05:27:11;;;;;;;19.27;9.83;;;;;;;;;;5004868;28;20415;-44
2022/10/31 05:29:37;;;;;;;13.07;9.27;;;;;;;;;;5004095;28;20408;-44
2022/10/31 05:32:03;;;;;;;13.73;9.03;;;;;;;;;;5001354;28;20413;-43
2022/10/31 05:34:29;;;;;;;19.50;9.80;;;;;;;;;;5003725;28;20424;-43
2022/10/31 05:36:55;;;;;;;25.77;9.90;;;;;;;;;;5002286;28;20807;-43
2022/10/31 05:39:21;;;;;;;15.57;10.00;;;;;;;;;;5002460;28;20760;-43
2022/10/31 05:41:47;;;;;;;19.73;10.47;;;;;;;;;;5002093;28;20765;-44
2022/10/31 05:44:13;;;;;;;11.23;8.47;;;;;;;;;;5006947;28;20817;-43
2022/10/31 05:46:39;;;;;;;16.23;9.63;;;;;;;;;;5001967;28;20429;-44
2022/10/31 05:49:04;;;;;;;14.50;9.00;;;;;;;;;;4999530;28;20453;-44
2022/10/31 05:51:30;;;;;;;14.20;8.87;;;;;;;;;;5002231;28;20424;-44
2022/10/31 05:53:56;;;;;;;16.77;9.00;;;;;;;;;;5001465;28;20437;-44
2022/10/31 05:56:22;;;;;;;18.80;9.20;;;;;;;;;;5004083;28;20417;-44
2022/10/31 05:58:48;;;;;;;21.20;8.90;;;;;;;;;;5004603;28;20494;-44
2022/10/31 06:01:14;;;;;;;17.70;9.83;;;;;;;;;;5005284;28;20914;-43
2022/10/31 06:03:40;;;;;;;16.00;10.43;;;;;;;;;;4999993;28;20520;-43
2022/10/31 06:06:06;;;;;;;13.17;10.17;;;;;;;;;;4997439;28;20492;-43
2022/10/31 06:08:32;;;;;;;19.10;10.70;;;;;;;;;;5004881;28;20498;-44
2022/10/31 06:10:58;;;;;;;14.03;9.10;;;;;;;;;;5001901;28;20666;-44
2022/10/31 06:13:24;;;;;;;19.90;9.93;;;;;;;;;;5003654;28;20773;-44
2022/10/31 06:15:50;;;;;;;20.40;10.67;;;;;;;;;;5002320;28;20449;-44
2022/10/31 06:18:17;;;;;;;18.40;9.63;;;;;;;;;;5003546;28;20428;-43
2022/10/31 06:20:43;;;;;;;12.60;9.20;;;;;;;;;;4998967;28;20414;-43
2022/10/31 06:23:09;;;;;;;14.40;10.00;;;;;;;;;;5003187;28;21046;-43
2022/10/31 06:25:35;;;;;;;22.80;10.00;;;;;;;;;;5002645;28;20459;-44
2022/10/31 06:28:01;;;;;;;13.20;9.23;;;;;;;;;;5000787;28;20464;-44
2022/10/31 06:30:27;;;;;;;19.10;10.40;;;;;;;;;;5003233;28;20923;-43
2022/10/31 06:32:53;;;;;;;12.20;8.87;;;;;;;;;;5000778;28;20969;-43
2022/10/31 06:35:19;;;;;;;16.87;9.83;;;;;;;;;;5001592;28;20816;-43
2022/10/31 06:37:54;;;;;;;16.10;9.77;;;;;;;;;;5001031;28;20416;-43
2022/10/31 06:40:20;;;;;;;25.80;10.07;;;;;;;;;;5006375;28;20420;-44
2022/10/31 06:42:46;;;;;;;21.40;9.77;;;;;;;;;;5001842;28;20463;-44
2022/10/31 06:45:12;;;;;;;16.10;10.07;;;;;;;;;;4998171;28;20814;-42
2022/10/31 06:47:38;;;;;;;16.30;10.27;;;;;;;;;;4998291;28;20895;-43
2022/10/31 06:50:05;;;;;;;12.43;9.20;;;;;;;;;;4991910;28;20453;-43
2022/10/31 06:52:31;;;;;;;20.60;10.30;;;;;;;;;;4979415;28;20398;-43
2022/10/31 06:54:57;;;;;;;14.90;9.40;;;;;;;;;;4994954;28;20443;-43
2022/10/31 06:57:23;;;;;;;15.40;9.50;;;;;;;;;;5008645;28;20459;-43
2022/10/31 06:59:48;;;;;;;15.47;9.77;;;;;;;;;;5000638;28;20405;-43
2022/10/31 07:02:14;;;;;;;12.83;9.57;;;;;;;;;;4996695;28;20795;-43
2022/10/31 07:04:40;;;;;;;22.43;9.70;;;;;;;;;;5011146;28;20622;-43
2022/10/31 07:07:06;;;;;;;17.00;9.77;;;;;;;;;;4994711;28;20420;-44
2022/10/31 07:09:32;;;;;;;12.60;9.60;;;;;;;;;;4991394;28;20417;-43
2022/10/31 07:11:58;;;;;;;15.90;8.90;;;;;;;;;;4999804;28;20420;-44
2022/10/31 07:14:25;;;;;;;15.50;9.93;;;;;;;;;;4999689;28;20492;-43
2022/10/31 07:16:51;;;;;;;22.13;10.57;;;;;;;;;;4993990;28;20413;-45
2022/10/31 07:19:18;;;;;;;15.73;9.20;;;;;;;;;;5001085;28;21084;-44
2022/10/31 07:21:44;;;;;;;16.50;9.80;;;;;;;;;;4997449;28;20409;-43
2022/10/31 07:24:10;;;;;;;20.43;9.83;;;;;;;;;;5008945;28;20540;-43
2022/10/31 07:26:36;;;;;;;17.90;9.93;;;;;;;;;;5003462;28;20489;-43
2022/10/31 07:29:02;;;;;;;22.50;10.50;;;;;;;;;;5008378;28;20776;-44
2022/10/31 07:31:28;;;;;;;18.50;10.97;;;;;;;;;;4999881;28;20418;-43
2022/10/31 07:33:54;;;;;;;15.70;9.87;;;;;;;;;;5011998;28;20459;-43
2022/10/31 07:36:20;;;;;;;13.97;9.93;;;;;;;;;;5010072;28;20489;-44
2022/10/31 07:38:46;;;;;;;15.10;10.53;;;;;;;;;;5007442;28;20421;-44
2022/10/31 07:41:12;;;;;;;28.93;11.43;;;;;;;;;;5001974;28;20408;-44
2022/10/31 07:43:38;;;;;;;17.20;11.33;;;;;;;;;;5003349;28;21012;-44
2022/10/31 07:46:04;;;;;;;15.60;9.57;;;;;;;;;;5004591;28;20483;-42
2022/10/31 07:48:31;;;;;;;21.00;10.50;;;;;;;;;;5007310;28;20412;-42
2022/10/31 07:50:57;;;;;;;24.60;12.20;;;;;;;;;;5005301;28;20744;-47
2022/10/31 07:53:23;;;;;;;19.17;11.27;;;;;;;;;;4998948;28;20824;-45
2022/10/31 07:55:49;;;;;;;23.00;10.70;;;;;;;;;;4996614;28;20394;-42
2022/10/31 07:58:16;;;;;;;18.97;9.57;;;;;;;;;;5005377;28;20923;-42
2022/10/31 08:00:43;;;;;;;17.97;9.60;;;;;;;;;;5009401;28;20437;-43
2022/10/31 08:03:09;;;;;;;19.67;10.37;;;;;;;;;;5003053;28;20467;-47
2022/10/31 08:05:36;;;;;;;19.00;10.30;;;;;;;;;;5003070;28;20483;-42
2022/10/31 08:08:02;;;;;;;17.77;9.90;;;;;;;;;;4998782;28;20485;-42
2022/10/31 08:10:28;;;;;;;16.13;10.43;;;;;;;;;;5004931;28;20485;-44
2022/10/31 08:13:04;;;;;;;18.50;10.67;;;;;;;;;;5001796;28;20492;-44
2022/10/31 08:15:30;;;;;;;20.00;9.83;;;;;;;;;;5001190;28;20791;-42
2022/10/31 08:17:56;;;;;;;18.23;10.70;;;;;;;;;;5001948;28;20782;-42
2022/10/31 08:20:22;;;;;;;19.67;10.73;;;;;;;;;;5001997;28;20947;-42
2022/10/31 08:22:59;;;;;;;14.23;9.80;;;;;;;;;;5001817;28;20455;-43
2022/10/31 08:25:25;;;;;;;24.90;11.97;;;;;;;;;;5003386;28;21416;-43
2022/10/31 08:27:52;;;;;;;19.13;9.83;;;;;;;;;;5002035;28;21135;-42
2022/10/31 08:30:18;;;;;;;15.23;10.40;;;;;;;;;;5004933;28;20878;-43
2022/10/31 08:32:44;;;;;;;16.37;11.60;;;;;;;;;;5002253;28;20415;-43
2022/10/31 08:35:10;;;;;;;14.93;10.60;;;;;;;;;;5007530;28;20406;-43
2022/10/31 08:37:36;;;;;;;21.40;11.30;;;;;;;;;;5001660;28;20424;-44
2022/10/31 08:40:03;;;;;;;15.10;10.73;;;;;;;;;;4999519;28;20412;-42
2022/10/31 08:42:29;;;;;;;13.00;10.10;;;;;;;;;;5008278;28;20430;-44
2022/10/31 08:44:55;;;;;;;22.43;11.30;;;;;;;;;;5005014;28;20510;-42
2022/10/31 08:47:21;;;;;;;21.40;9.97;;;;;;;;;;5006066;28;20428;-42
2022/10/31 08:49:47;;;;;;;29.53;11.47;;;;;;;;;;5003158;28;20414;-43
2022/10/31 08:52:14;;;;;;;24.90;11.50;;;;;;;;;;5005496;28;20933;-43
2022/10/31 08:54:40;;;;;;;26.17;11.03;;;;;;;;;;5000363;28;20412;-42
2022/10/31 08:57:06;;;;;;;21.07;12.17;;;;;;;;;;5005873;28;20899;-42
2022/10/31 08:59:32;;;;;;;19.63;10.33;;;;;;;;;;5004540;28;20400;-42
2022/10/31 09:01:58;;;;;;;14.90;10.47;;;;;;;;;;5003242;28;20401;-42
2022/10/31 09:04:24;;;;;;;15.10;9.63;;;;;;;;;;5005451;28;20448;-43
2022/10/31 09:06:50;;;;;;;15.73;10.20;;;;;;;;;;5004624;28;20810;-44
2022/10/31 09:09:16;;;;;;;18.13;10.13;;;;;;;;;;5004395;28;20756;-42
2022/10/31 09:11:42;;;;;;;22.37;10.37;;;;;;;;;;5003773;28;20395;-42
2022/10/31 09:14:08;;;;;;;21.00;11.20;;;;;;;;;;5005025;28;20438;-42
2022/10/31 09:16:34;;;;;;;18.30;11.63;;;;;;;;;;5002652;28;20391;-42
2022/10/31 09:19:00;;;;;;;18.57;10.80;;;;;;;;;;5001241;28;20420;-43
2022/10/31 09:21:26;;;;;;;17.83;10.53;;;;;;;;;;5003272;28;20497;-43
2022/10/31 09:23:53;;;;;;;22.60;10.90;;;;;;;;;;5002287;28;20961;-43
2022/10/31 09:26:19;;;;;;;25.07;11.57;;;;;;;;;;5004427;28;20418;-42
2022/10/31 09:28:46;;;;;;;19.87;10.70;;;;;;;;;;5006290;28;20502;-42
2022/10/31 09:31:12;;;;;;;27.90;11.13;;;;;;;;;;4999371;28;20853;-46
2022/10/31 09:33:38;;;;;;;22.83;11.47;;;;;;;;;;5003170;28;20597;-43
2022/10/31 09:36:04;;;;;;;23.57;11.60;;;;;;;;;;4998500;28;20917;-42
2022/10/31 09:38:30;;;;;;;16.37;11.60;;;;;;;;;;5005233;28;20892;-43
2022/10/31 09:41:08;;;;;;;21.20;12.57;;;;;;;;;;5004464;28;20449;-43
2022/10/31 09:43:36;;;;;;;15.87;11.63;;;;;;;;;;4994359;28;20463;-43
2022/10/31 09:46:15;;;;;;;16.57;10.30;;;;;;;;;;5001672;28;20471;-42
2022/10/31 09:48:47;;;;;;;21.53;12.97;;;;;;;;;;5000398;28;20426;-43
2022/10/31 09:51:17;;;;;;;21.20;14.03;;;;;;;;;;5001906;28;20919;-43
2022/10/31 09:53:47;;;;;;;22.43;13.80;;;;;;;;;;5007057;28;20846;-43
2022/10/31 09:56:15;;;;;;;23.37;12.37;;;;;;;;;;5007594;28;21011;-42
2022/10/31 09:58:43;;;;;;;19.10;12.00;;;;;;;;;;5004343;28;20902;-43
2022/10/31 10:01:16;;;;;;;22.30;13.13;;;;;;;;;;4999460;28;20578;-45
2022/10/31 10:03:45;;;;;;;21.73;14.20;;;;;;;;;;5001040;28;20477;-42
2022/10/31 10:06:15;;;;;;;23.03;13.60;;;;;;;;;;5002228;28;20850;-45
2022/10/31 10:08:41;;;;;;;20.23;14.37;;;;;;;;;;5004905;28;20431;-43
2022/10/31 10:11:07;;;;;;;20.33;13.27;;;;;;;;;;5002785;28;20438;-43
2022/10/31 10:13:33;;;;;;;26.47;13.80;;;;;;;;;;5004889;28;20849;-46
2022/10/31 10:15:59;;;;;;;18.93;14.20;;;;;;;;;;5000169;28;21197;-43
2022/10/31 10:18:28;;;;;;;31.43;14.57;;;;;;;;;;4996176;28;20418;-42
2022/10/31 10:21:03;;;;;;;30.20;13.63;;;;;;;;;;5012862;28;20415;-45
2022/10/31 10:23:32;;;;;;;19.33;12.30;;;;;;;;;;5002552;28;20492;-42
2022/10/31 10:26:07;;;;;;;18.30;13.30;;;;;;;;;;5001852;28;20409;-43
2022/10/31 10:28:38;;;;;;;22.10;12.83;;;;;;;;;;5000941;28;20770;-44
2022/10/31 10:31:07;;;;;;;21.77;13.63;;;;;;;;;;5001256;28;20416;-43
2022/10/31 10:33:41;;;;;;;27.83;14.00;;;;;;;;;;5000048;28;20436;-43
2022/10/31 10:36:12;;;;;;;28.37;14.07;;;;;;;;;;5001617;28;20471;-43
2022/10/31 10:38:56;;;;;;;28.47;13.00;;;;;;;;;;5000466;28;20489;-44
2022/10/31 10:41:23;;;;;;;22.90;13.03;;;;;;;;;;5005485;28;20427;-43
2022/10/31 10:43:50;;;;;;;20.27;12.80;;;;;;;;;;5001362;28;20979;-43
2022/10/31 10:49:10;;;;;;;19.67;10.73;;;;;;;;;;5005557;28;20421;-46
2022/10/31 10:51:59;;;;;;;22.80;12.87;;;;;;;;;;5000821;28;20509;-43
2022/10/31 10:54:38;;;;;;;19.93;10.70;;;;;;;;;;4999164;28;20447;-43
2022/10/31 10:57:10;;;;;;;22.83;13.10;;;;;;;;;;4997913;28;20442;-45
2022/10/31 10:59:37;;;;;;;19.93;12.37;;;;;;;;;;4993541;28;20452;-43
2022/10/31 11:02:04;;;;;;;21.63;11.50;;;;;;;;;;5000510;28;20482;-43
2022/10/31 11:04:37;;;;;;;19.97;11.13;;;;;;;;;;5003365;28;20553;-44
2022/10/31 11:07:03;;;;;;;20.70;12.80;;;;;;;;;;5002192;28;20423;-43
2022/10/31 11:09:29;;;;;;;25.90;11.83;;;;;;;;;;5004014;28;20407;-46
2022/10/31 11:11:56;;;;;;;19.83;10.57;;;;;;;;;;4989314;28;20425;-43
2022/10/31 11:14:23;;;;;;;16.73;11.23;;;;;;;;;;4992106;28;20442;-43
2022/10/31 11:16:52;;;;;;;18.77;9.77;;;;;;;;;;4992066;28;20426;-46
2022/10/31 11:19:20;;;;;;;15.93;10.00;;;;;;;;;;4989691;28;20412;-43
2022/10/31 11:21:46;;;;;;;17.50;13.13;;;;;;;;;;4995940;28;20407;-43
2022/10/31 11:24:21;;;;;;;20.20;10.10;;;;;;;;;;4986819;28;20559;-45
2022/10/31 11:26:47;;;;;;;22.83;12.70;;;;;;;;;;4989322;28;20488;-44
2022/10/31 11:29:15;;;;;;;26.07;16.13;;;;;;;;;;4997531;28;20767;-43
2022/10/31 11:31:44;;;;;;;16.17;11.40;;;;;;;;;;4994594;28;20816;-43
2022/10/31 11:34:25;;;;;;;17.47;11.47;;;;;;;;;;4998226;28;20525;-43
2022/10/31 11:36:51;;;;;;;17.50;10.90;;;;;;;;;;5000574;28;20426;-43
2022/10/31 11:39:20;;;;;;;17.07;10.23;;;;;;;;;;5001351;28;20416;-43
2022/10/31 11:41:46;;;;;;;14.70;9.57;;;;;;;;;;4992465;28;20423;-43
2022/10/31 11:44:18;;;;;;;20.80;11.33;;;;;;;;;;4998162;28;20459;-45
2022/10/31 11:46:46;;;;;;;13.77;9.60;;;;;;;;;;4997888;28;20428;-43
2022/10/31 11:49:33;;;;;;;14.23;9.50;;;;;;;;;;4996226;28;20776;-43
2022/10/31 11:52:00;;;;;;;15.70;9.80;;;;;;;;;;4996083;28;20442;-43
2022/10/31 11:54:34;;;;;;;15.63;9.10;;;;;;;;;;5001128;28;20488;-43
2022/10/31 11:57:00;;;;;;;15.37;9.53;;;;;;;;;;4998942;28;20411;-46
2022/10/31 11:59:30;;;;;;;10.90;8.20;;;;;;;;;;5002882;28;20757;-43
2022/10/31 12:01:57;;;;;;;18.43;9.47;;;;;;;;;;5001774;28;20446;-43
2022/10/31 12:04:33;;;;;;;16.13;8.00;;;;;;;;;;5002086;28;20463;-43
2022/10/31 12:06:59;;;;;;;13.90;7.60;;;;;;;;;;4998905;28;20412;-46
2022/10/31 12:09:30;;;;;;;15.00;8.00;;;;;;;;;;5001274;28;20461;-46
2022/10/31 12:12:09;;;;;;;14.30;8.07;;;;;;;;;;5001264;28;20843;-44
2022/10/31 12:14:41;;;;;;;22.47;9.03;;;;;;;;;;4992090;28;20430;-43
2022/10/31 12:17:27;;;;;;;15.13;7.90;;;;;;;;;;4999575;28;20523;-43
2022/10/31 12:19:53;;;;;;;13.87;8.37;;;;;;;;;;5001631;28;20771;-43
2022/10/31 12:22:23;;;;;;;11.53;6.73;;;;;;;;;;5007440;28;20418;-42
2022/10/31 12:25:19;;;;;;;10.70;6.83;;;;;;;;;;5006099;28;20471;-43
2022/10/31 12:27:57;;;;;;;9.17;6.87;;;;;;;;;;4989863;28;20414;-47
2022/10/31 12:30:26;;;;;;;9.57;6.60;;;;;;;;;;5004120;28;20415;-43
2022/10/31 12:32:51;;;;;;;9.87;6.40;;;;;;;;;;5005819;28;20419;-43
2022/10/31 12:35:28;;;;;;;8.17;6.03;;;;;;;;;;5001453;28;20419;-43
2022/10/31 12:38:13;;;;;;;10.63;6.57;;;;;;;;;;5001458;28;20408;-43
2022/10/31 12:41:00;;;;;;;10.27;6.30;;;;;;;;;;4996104;28;20407;-43
2022/10/31 12:43:29;;;;;;;9.57;6.37;;;;;;;;;;5011711;28;20543;-43
2022/10/31 12:46:00;;;;;;;10.40;7.20;;;;;;;;;;5004441;28;20421;-43
2022/10/31 12:48:55;;;;;;;12.97;6.37;;;;;;;;;;5005510;28;20415;-43
2022/10/31 12:51:28;;;;;;;8.60;5.57;;;;;;;;;;4994469;28;20904;-43
2022/10/31 12:54:01;;;;;;;11.53;5.80;;;;;;;;;;5001076;28;20484;-44
2022/10/31 12:56:38;;;;;;;11.07;5.70;;;;;;;;;;5018093;28;20424;-46
2022/10/31 12:59:10;;;;;;;9.67;6.23;;;;;;;;;;5003049;28;20851;-43
2022/10/31 13:01:47;;;;;;;11.87;5.73;;;;;;;;;;4998181;28;20484;-43
2022/10/31 13:04:19;;;;;;;15.90;6.80;;;;;;;;;;5002838;28;20551;-43
2022/10/31 13:06:56;;;;;;;12.30;5.53;;;;;;;;;;5002166;28;20407;-43
2022/10/31 13:09:34;;;;;;;10.93;5.80;;;;;;;;;;4998260;28;20411;-43
2022/10/31 13:12:08;;;;;;;8.93;5.87;;;;;;;;;;5005966;28;20818;-44
2022/10/31 13:14:37;;;;;;;10.27;4.83;;;;;;;;;;5002143;28;20431;-46
2022/10/31 13:17:03;;;;;;;10.17;5.53;;;;;;;;;;5001607;28;20416;-43
2022/10/31 13:19:32;;;;;;;6.03;4.70;;;;;;;;;;5004121;28;20511;-43
2022/10/31 13:22:03;;;;;;;14.83;5.23;;;;;;;;;;5002417;28;20487;-43
2022/10/31 13:24:49;;;;;;;15.17;6.47;;;;;;;;;;5002174;28;20828;-43
2022/10/31 13:27:22;;;;;;;15.03;5.43;;;;;;;;;;5003846;28;20779;-43
2022/10/31 13:29:51;;;;;;;15.90;6.03;;;;;;;;;;4997015;28;20408;-43
2022/10/31 13:32:17;;;;;;;9.20;5.27;;;;;;;;;;5003661;28;20407;-43
2022/10/31 13:34:46;;;;;;;16.67;6.00;;;;;;;;;;4999732;28;20939;-44
2022/10/31 13:37:21;;;;;;;9.73;5.70;;;;;;;;;;4996662;28;20418;-44
2022/10/31 13:40:10;;;;;;;9.53;5.40;;;;;;;;;;5005641;28;20471;-43
2022/10/31 13:42:56;;;;;;;5.90;5.30;;;;;;;;;;4990662;28;20510;-43
2022/10/31 13:45:24;;;;;;;11.63;5.50;;;;;;;;;;5002294;28;20430;-43
2022/10/31 13:47:56;;;;;;;12.20;6.23;;;;;;;;;;5000073;28;20418;-46
2022/10/31 13:50:24;;;;;;;6.03;5.03;;;;;;;;;;5001426;28;20446;-43
2022/10/31 13:52:50;;;;;;;11.13;5.77;;;;;;;;;;5000790;28;20472;-43
2022/10/31 13:55:34;;;;;;;9.53;5.00;;;;;;;;;;5002672;28;20420;-43
2022/10/31 13:58:00;;;;;;;10.20;5.70;;;;;;;;;;5002134;28;20447;-43
2022/10/31 14:00:27;;;;;;;7.43;5.07;;;;;;;;;;5004771;28;20478;-43
2022/10/31 14:02:54;;;;;;;8.17;4.60;;;;;;;;;;4998628;28;20531;-43
2022/10/31 14:05:28;;;;;;;12.90;5.90;;;;;;;;;;5002339;28;20416;-43
2022/10/31 14:07:54;;;;;;;10.30;5.30;;;;;;;;;;5001843;28;20943;-43
2022/10/31 14:10:23;;;;;;;10.63;5.90;;;;;;;;;;5002947;28;20421;-43
2022/10/31 14:12:50;;;;;;;18.40;5.63;;;;;;;;;;5001326;28;20900;-43
2022/10/31 14:15:21;;;;;;;13.13;5.73;;;;;;;;;;5000419;28;20998;-44
2022/10/31 14:17:56;;;;;;;10.63;4.70;;;;;;;;;;5001034;28;20400;-44
2022/10/31 14:20:26;;;;;;;11.10;5.33;;;;;;;;;;5002126;28;20901;-46
2022/10/31 14:22:52;;;;;;;9.00;5.63;;;;;;;;;;5000037;28;21081;-45
2022/10/31 14:25:25;;;;;;;10.90;6.00;;;;;;;;;;5004655;28;20757;-45
2022/10/31 14:27:52;;;;;;;10.30;5.60;;;;;;;;;;5001356;28;20907;-46
2022/10/31 14:30:22;;;;;;;10.20;4.70;;;;;;;;;;5001281;28;20509;-44
2022/10/31 14:32:51;;;;;;;8.43;5.50;;;;;;;;;;4998931;28;20478;-45
2022/10/31 14:35:17;;;;;;;8.87;4.97;;;;;;;;;;5000873;28;20427;-46
2022/10/31 14:37:53;;;;;;;11.80;5.40;;;;;;;;;;4999482;28;20459;-44